Time;durP1;ratioP1;P1;durP2;ratioP2;P2;SDS_P1;SDS_P2;PMS_P1;PMS_P2;Temp;Humidity;BMP_temperature;BMP_pressure;BME280_temperature;BME280_humidity;BME280_pressure;Samples;Min_cycle;Max_cycle;Signal;HPM_P1;HPM_P2
2022/11/24 00:02:09;;;;;;;19.15;10.43;;;7.50;99.90;;;;;;6219688;23;20078;-88
2022/11/24 00:04:34;;;;;;;18.90;9.93;;;7.50;99.90;;;;;;6218315;23;20012;-87
2022/11/24 00:07:00;;;;;;;23.45;10.73;;;7.40;99.90;;;;;;6219010;23;20023;-88
2022/11/24 00:09:26;;;;;;;25.65;10.90;;;7.40;99.90;;;;;;6219259;23;20050;-87
2022/11/24 00:11:51;;;;;;;23.65;10.60;;;7.30;99.90;;;;;;6219063;23;20019;-87
2022/11/24 00:14:17;;;;;;;25.80;10.70;;;7.30;99.90;;;;;;6245394;23;20012;-87
2022/11/24 00:16:43;;;;;;;19.17;10.00;;;7.20;99.90;;;;;;6218777;23;20027;-87
2022/11/24 00:19:09;;;;;;;18.75;9.27;;;7.20;99.90;;;;;;6245355;23;20016;-88
2022/11/24 00:21:36;;;;;;;22.10;9.45;;;7.10;99.90;;;;;;6219086;23;20016;-87
2022/11/24 00:24:02;;;;;;;27.10;10.68;;;7.10;99.90;;;;;;6193272;23;20047;-87
2022/11/24 00:26:30;;;;;;;22.15;9.93;;;7.00;99.90;;;;;;6218665;23;20080;-87
2022/11/24 00:28:58;;;;;;;24.58;9.88;;;7.00;99.90;;;;;;6245371;23;20023;-87
2022/11/24 00:31:30;;;;;;;24.13;10.02;;;7.00;99.90;;;;;;6217764;23;20054;-87
2022/11/24 00:33:58;;;;;;;23.95;9.48;;;6.90;99.90;;;;;;6218672;23;20064;-87
2022/11/24 00:36:27;;;;;;;25.27;10.48;;;6.90;99.90;;;;;;6246392;23;20016;-88
2022/11/24 00:38:54;;;;;;;19.83;9.07;;;6.80;99.90;;;;;;6218333;23;20012;-87
2022/11/24 00:41:20;;;;;;;25.27;9.70;;;6.80;99.90;;;;;;6192801;23;20023;-86
2022/11/24 00:43:46;;;;;;;19.98;8.75;;;6.80;99.90;;;;;;6246079;23;20012;-86
2022/11/24 00:46:12;;;;;;;24.13;10.63;;;6.70;99.90;;;;;;6218651;23;20039;-87
2022/11/24 00:48:37;;;;;;;25.00;9.45;;;6.80;99.90;;;;;;6218584;23;20104;-87
2022/11/24 00:51:09;;;;;;;27.05;10.60;;;6.70;99.90;;;;;;6220352;23;20318;-87
2022/11/24 00:53:35;;;;;;;28.60;9.30;;;6.70;99.90;;;;;;6194909;23;20060;-87
2022/11/24 00:56:02;;;;;;;25.42;8.95;;;6.90;99.90;;;;;;6194585;23;20016;-87
2022/11/24 00:58:29;;;;;;;26.60;9.75;;;6.70;99.90;;;;;;6194748;23;20020;-87
2022/11/24 01:01:00;;;;;;;29.55;9.18;;;6.70;99.90;;;;;;6246808;23;20008;-87
2022/11/24 01:03:26;;;;;;;21.80;8.13;;;6.70;99.90;;;;;;6218296;23;20027;-86
2022/11/24 01:05:51;;;;;;;31.52;9.15;;;7.00;99.90;;;;;;6219103;23;20012;-85
2022/11/24 01:08:17;;;;;;;27.63;8.63;;;6.60;99.90;;;;;;6193771;23;20463;-85
2022/11/24 01:10:43;;;;;;;27.63;8.35;;;6.60;99.90;;;;;;6220046;23;20495;-87
2022/11/24 01:13:08;;;;;;;23.83;8.35;;;6.60;99.90;;;;;;6246634;23;20360;-87
2022/11/24 01:15:35;;;;;;;29.13;8.93;;;6.80;99.90;;;;;;6246777;23;20008;-87
2022/11/24 01:18:01;;;;;;;25.92;8.60;;;6.70;99.90;;;;;;6219657;23;20337;-87
2022/11/24 01:20:27;;;;;;;24.10;8.95;;;6.50;99.90;;;;;;6195043;23;20008;-87
2022/11/24 01:22:52;;;;;;;24.90;7.43;;;6.60;99.90;;;;;;6193426;23;20436;-87
2022/11/24 01:25:18;;;;;;;29.17;8.95;;;6.50;99.90;;;;;;6218768;23;20087;-87
2022/11/24 01:27:44;;;;;;;24.77;7.60;;;6.50;99.90;;;;;;6193984;23;20012;-86
2022/11/24 01:30:10;;;;;;;22.05;7.70;;;6.50;99.90;;;;;;6219540;23;20039;-86
2022/11/24 01:32:36;;;;;;;28.85;7.45;;;6.50;99.90;;;;;;6246057;23;20016;-86
2022/11/24 01:35:05;;;;;;;25.42;7.75;;;6.50;99.90;;;;;;6245949;23;20010;-86
2022/11/24 01:37:31;;;;;;;23.05;6.78;;;6.50;99.90;;;;;;6218753;23;20092;-86
2022/11/24 01:39:57;;;;;;;22.92;7.32;;;6.50;99.90;;;;;;6245468;23;20027;-86
2022/11/24 01:42:22;;;;;;;25.73;7.22;;;6.50;99.90;;;;;;6219882;23;20016;-87
2022/11/24 01:45:11;;;;;;;30.88;6.88;;;6.50;99.90;;;;;;6246669;23;20340;-87
2022/11/24 01:47:42;;;;;;;20.67;6.00;;;6.60;99.90;;;;;;6218974;23;20024;-87
2022/11/24 01:50:15;;;;;;;23.75;5.88;;;6.40;99.90;;;;;;6219347;23;20087;-85
2022/11/24 01:52:46;;;;;;;22.55;6.75;;;6.60;99.90;;;;;;6219363;23;20045;-87
2022/11/24 01:55:17;;;;;;;23.33;5.50;;;6.60;99.90;;;;;;6218845;23;20096;-86
2022/11/24 01:58:00;;;;;;;21.42;5.90;;;6.70;99.90;;;;;;6219606;23;20100;-85
2022/11/24 02:00:26;;;;;;;19.67;5.95;;;6.60;99.90;;;;;;6218629;23;20574;-86
2022/11/24 02:02:52;;;;;;;26.23;6.28;;;6.70;99.90;;;;;;6245363;23;20016;-86
2022/11/24 02:05:23;;;;;;;24.67;6.68;;;6.70;99.90;;;;;;6194363;23;20340;-86
2022/11/24 02:07:52;;;;;;;20.35;6.57;;;6.80;99.90;;;;;;6217947;23;20036;-87
2022/11/24 02:10:19;;;;;;;19.90;5.22;;;6.90;99.90;;;;;;6218636;23;20008;-86
2022/11/24 02:12:47;;;;;;;23.83;5.38;;;6.90;99.90;;;;;;6245630;23;20551;-86
2022/11/24 02:15:17;;;;;;;24.38;6.18;;;6.90;99.90;;;;;;6218813;23;20039;-85
2022/11/24 02:17:43;;;;;;;26.17;6.05;;;6.90;99.90;;;;;;6245236;23;20019;-86
2022/11/24 02:20:10;;;;;;;21.00;5.15;;;6.90;99.90;;;;;;6218713;23;20016;-86
2022/11/24 02:23:10;;;;;;;21.80;5.07;;;6.90;99.90;;;;;;6193147;23;20020;-87
2022/11/24 02:25:54;;;;;;;23.42;5.70;;;6.90;99.90;;;;;;6193023;23;20016;-86
2022/11/24 02:28:22;;;;;;;21.77;5.20;;;6.90;99.90;;;;;;6218227;23;20019;-86
2022/11/24 02:30:49;;;;;;;24.17;6.20;;;6.90;99.90;;;;;;6218166;23;20012;-85
2022/11/24 02:33:15;;;;;;;24.10;5.70;;;6.80;99.90;;;;;;6218021;23;20010;-86
2022/11/24 02:35:41;;;;;;;16.45;5.05;;;6.80;99.90;;;;;;6193590;23;20024;-85
2022/11/24 02:38:12;;;;;;;20.10;5.45;;;6.80;99.90;;;;;;6193028;23;20365;-86
2022/11/24 02:40:40;;;;;;;27.00;6.00;;;6.80;99.90;;;;;;6192420;23;20042;-86
2022/11/24 02:43:16;;;;;;;25.20;5.78;;;6.70;99.90;;;;;;6244132;23;20015;-85
2022/11/24 02:45:42;;;;;;;21.05;4.53;;;7.00;99.90;;;;;;6218368;23;20008;-85
2022/11/24 02:48:08;;;;;;;20.98;4.68;;;6.60;99.90;;;;;;6218673;23;20012;-86
2022/11/24 02:50:33;;;;;;;27.65;5.07;;;6.50;99.90;;;;;;6217854;23;20012;-86
2022/11/24 02:52:59;;;;;;;19.95;4.90;;;6.50;99.90;;;;;;6193541;23;20059;-86
2022/11/24 02:55:25;;;;;;;24.73;4.80;;;6.50;99.90;;;;;;6193001;23;20150;-86
2022/11/24 02:57:51;;;;;;;26.40;5.57;;;6.50;99.90;;;;;;6218083;23;20339;-86
2022/11/24 03:00:17;;;;;;;20.45;5.00;;;6.50;99.90;;;;;;6217810;23;20536;-86
2022/11/24 03:02:43;;;;;;;23.70;5.18;;;6.50;99.90;;;;;;6218330;23;20020;-85
2022/11/24 03:05:10;;;;;;;20.80;5.35;;;6.50;99.90;;;;;;6217666;23;20048;-86
2022/11/24 03:07:36;;;;;;;22.02;4.97;;;6.70;99.90;;;;;;6218047;23;20055;-84
2022/11/24 03:10:02;;;;;;;23.67;5.03;;;6.50;99.90;;;;;;6217256;23;20019;-86
2022/11/24 03:12:28;;;;;;;19.80;4.80;;;6.50;99.90;;;;;;6243797;23;20058;-85
2022/11/24 03:14:54;;;;;;;25.83;4.70;;;6.50;99.90;;;;;;6244641;23;20031;-86
2022/11/24 03:17:19;;;;;;;25.52;5.38;;;6.50;99.90;;;;;;6244379;23;20062;-86
2022/11/24 03:19:45;;;;;;;18.75;4.78;;;6.50;99.90;;;;;;6216746;23;20008;-86
2022/11/24 03:22:12;;;;;;;23.63;4.88;;;6.50;99.90;;;;;;6216699;23;20385;-86
2022/11/24 03:24:38;;;;;;;25.85;4.85;;;6.50;99.90;;;;;;6217714;23;20016;-85
2022/11/24 03:27:04;;;;;;;19.75;4.63;;;6.50;99.90;;;;;;6217361;23;20027;-85
2022/11/24 03:29:29;;;;;;;23.08;4.80;;;6.50;99.90;;;;;;6217584;23;20091;-85
2022/11/24 03:31:55;;;;;;;24.65;4.75;;;6.60;99.90;;;;;;6217620;23;20083;-86
2022/11/24 03:34:21;;;;;;;21.90;4.55;;;6.60;99.90;;;;;;6217041;23;20016;-85
2022/11/24 03:36:46;;;;;;;25.17;4.68;;;6.60;99.90;;;;;;6244651;23;20012;-86
2022/11/24 03:39:12;;;;;;;19.00;4.35;;;6.60;99.90;;;;;;6217775;23;20008;-86
2022/11/24 03:41:38;;;;;;;23.58;4.97;;;6.60;99.90;;;;;;6217418;23;20023;-85
2022/11/24 03:44:04;;;;;;;23.00;4.80;;;6.70;99.90;;;;;;6192657;23;20015;-85
2022/11/24 03:46:29;;;;;;;24.52;4.68;;;6.70;99.90;;;;;;6217312;23;20364;-86
2022/11/24 03:48:55;;;;;;;22.17;4.60;;;6.70;99.90;;;;;;6244544;23;20471;-85
2022/11/24 03:51:21;;;;;;;25.10;5.03;;;7.00;99.90;;;;;;6218103;23;20008;-84
2022/11/24 03:53:46;;;;;;;18.30;4.40;;;6.90;99.90;;;;;;6215756;23;20110;-85
2022/11/24 03:56:13;;;;;;;23.20;4.72;;;6.70;99.90;;;;;;6243419;23;20085;-84
2022/11/24 03:58:39;;;;;;;23.65;5.30;;;6.70;99.90;;;;;;6244201;23;20016;-85
2022/11/24 04:01:05;;;;;;;18.98;3.83;;;6.70;99.90;;;;;;6242416;23;20050;-85
2022/11/24 04:03:30;;;;;;;17.50;4.25;;;6.60;99.90;;;;;;6216495;23;20016;-85
2022/11/24 04:05:56;;;;;;;20.95;4.40;;;6.70;99.90;;;;;;6192597;23;20020;-86
2022/11/24 04:08:22;;;;;;;19.70;4.00;;;6.70;99.90;;;;;;6216586;23;20043;-85
2022/11/24 04:10:52;;;;;;;27.55;4.38;;;6.60;99.90;;;;;;6216872;23;20020;-85
2022/11/24 04:13:21;;;;;;;19.88;3.78;;;6.60;99.90;;;;;;6216559;23;20008;-86
2022/11/24 04:15:47;;;;;;;22.23;4.60;;;6.50;99.90;;;;;;6244137;23;20027;-85
2022/11/24 04:18:13;;;;;;;22.98;4.47;;;6.60;99.90;;;;;;6216568;23;20060;-86
2022/11/24 04:20:40;;;;;;;22.23;4.32;;;6.50;99.90;;;;;;6216961;23;20058;-86
2022/11/24 04:23:06;;;;;;;18.80;4.05;;;6.50;99.90;;;;;;6216561;23;20039;-85
2022/11/24 04:25:32;;;;;;;17.05;3.50;;;6.50;99.90;;;;;;6245973;23;20019;-85
2022/11/24 04:27:57;;;;;;;22.60;3.83;;;6.50;99.90;;;;;;6245732;23;20090;-85
2022/11/24 04:30:25;;;;;;;16.60;3.85;;;6.50;99.90;;;;;;6219432;23;20368;-85
2022/11/24 04:32:51;;;;;;;22.80;4.47;;;6.50;99.90;;;;;;6192658;23;20018;-85
2022/11/24 04:35:17;;;;;;;20.33;3.63;;;6.40;99.90;;;;;;6219105;23;20404;-85
2022/11/24 04:37:43;;;;;;;18.83;3.42;;;6.40;99.90;;;;;;6193219;23;20020;-85
2022/11/24 04:40:10;;;;;;;17.30;3.47;;;6.40;99.90;;;;;;6193855;23;20019;-85
2022/11/24 04:42:36;;;;;;;16.48;3.35;;;6.40;99.90;;;;;;6218866;23;20464;-85
2022/11/24 04:45:03;;;;;;;19.70;3.38;;;6.40;99.90;;;;;;6245079;23;20027;-85
2022/11/24 04:47:29;;;;;;;19.77;3.45;;;6.40;99.90;;;;;;6216818;23;20471;-85
2022/11/24 04:49:55;;;;;;;29.52;4.32;;;6.40;99.90;;;;;;6218783;23;20012;-85
2022/11/24 04:52:22;;;;;;;25.42;3.42;;;6.40;99.90;;;;;;6218961;23;20047;-85
2022/11/24 04:54:48;;;;;;;21.00;3.72;;;6.40;99.90;;;;;;6219070;23;20027;-85
2022/11/24 04:57:23;;;;;;;19.38;4.22;;;6.30;99.90;;;;;;6219191;23;20016;-85
2022/11/24 04:59:51;;;;;;;20.15;3.45;;;6.30;99.90;;;;;;6192998;23;20357;-85
2022/11/24 05:02:17;;;;;;;21.88;3.30;;;6.30;99.90;;;;;;6217346;23;20016;-85
2022/11/24 05:04:43;;;;;;;14.07;2.65;;;6.30;99.90;;;;;;6217417;23;20050;-85
2022/11/24 05:07:13;;;;;;;19.58;3.50;;;6.30;99.90;;;;;;6193259;23;20023;-85
2022/11/24 05:10:33;;;;;;;24.65;4.22;;;6.20;99.90;;;;;;6218373;23;20019;-85
2022/11/24 05:12:29;;;;;;;19.65;3.50;;;6.30;99.90;;;;;;6245399;23;20023;-85
2022/11/24 05:14:56;;;;;;;19.90;2.70;;;6.20;99.90;;;;;;6244023;23;20023;-85
2022/11/24 05:17:22;;;;;;;16.58;3.25;;;6.20;99.90;;;;;;6192796;23;20012;-85
2022/11/24 05:19:47;;;;;;;19.70;3.55;;;6.20;99.90;;;;;;6244860;23;20020;-85
2022/11/24 05:22:13;;;;;;;21.35;3.65;;;6.20;99.90;;;;;;6245396;23;20016;-85
2022/11/24 05:24:39;;;;;;;20.45;3.35;;;6.20;99.90;;;;;;6192690;23;20046;-85
2022/11/24 05:27:04;;;;;;;25.33;3.90;;;6.20;99.90;;;;;;6245124;23;20008;-85
2022/11/24 05:29:30;;;;;;;16.08;3.40;;;6.10;99.90;;;;;;6244390;23;20503;-85
2022/11/24 05:31:55;;;;;;;19.63;3.47;;;6.10;99.90;;;;;;6217847;23;20012;-85
2022/11/24 05:34:21;;;;;;;13.20;3.15;;;6.10;99.90;;;;;;6218139;23;20012;-85
2022/11/24 05:36:53;;;;;;;18.77;3.10;;;6.10;99.90;;;;;;6217259;23;20012;-84
2022/11/24 05:39:19;;;;;;;20.10;3.60;;;6.10;99.90;;;;;;6216848;23;20332;-85
2022/11/24 05:41:45;;;;;;;18.33;2.85;;;6.10;99.90;;;;;;6245432;23;20016;-84
2022/11/24 05:44:11;;;;;;;21.95;3.55;;;6.10;99.90;;;;;;6216957;23;20027;-84
2022/11/24 05:46:36;;;;;;;23.15;3.47;;;6.00;99.90;;;;;;6217880;23;20023;-85
2022/11/24 05:49:02;;;;;;;17.58;3.28;;;6.00;99.90;;;;;;6245497;23;20068;-85
2022/11/24 05:51:29;;;;;;;17.23;3.08;;;6.00;99.90;;;;;;6218371;23;20522;-84
2022/11/24 05:53:55;;;;;;;22.33;3.67;;;6.00;99.90;;;;;;6219381;23;20015;-85
2022/11/24 05:56:20;;;;;;;17.95;2.75;;;6.00;99.90;;;;;;6217597;23;20401;-85
2022/11/24 05:58:46;;;;;;;22.67;3.67;;;6.00;99.90;;;;;;6218379;23;20020;-85
2022/11/24 06:01:11;;;;;;;18.20;4.07;;;6.00;99.90;;;;;;6218403;23;20069;-85
2022/11/24 06:03:37;;;;;;;12.77;2.90;;;6.00;99.90;;;;;;6217269;23;20016;-85
2022/11/24 06:06:03;;;;;;;19.33;3.63;;;6.00;99.90;;;;;;6216949;23;20020;-85
2022/11/24 06:08:29;;;;;;;17.77;3.30;;;6.00;99.90;;;;;;6218478;23;20015;-86
2022/11/24 06:11:15;;;;;;;19.95;3.85;;;6.00;99.90;;;;;;6246263;23;20111;-85
2022/11/24 06:13:45;;;;;;;18.17;3.78;;;6.00;99.90;;;;;;6217867;23;20012;-85
2022/11/24 06:16:11;;;;;;;25.75;3.40;;;6.00;99.90;;;;;;6217207;23;20091;-85
2022/11/24 06:18:37;;;;;;;16.15;3.13;;;6.00;99.90;;;;;;6218553;23;20012;-85
2022/11/24 06:21:03;;;;;;;21.42;3.40;;;6.00;99.90;;;;;;6244150;23;20020;-85
2022/11/24 06:23:29;;;;;;;15.15;2.67;;;6.00;99.90;;;;;;6217972;23;20016;-85
2022/11/24 06:25:57;;;;;;;16.40;3.50;;;6.00;99.90;;;;;;6192388;23;20472;-84
2022/11/24 06:28:23;;;;;;;18.90;3.38;;;6.00;99.90;;;;;;6189827;23;20066;-85
2022/11/24 06:30:48;;;;;;;19.45;3.30;;;6.00;99.90;;;;;;6190325;23;20515;-84
2022/11/24 06:33:14;;;;;;;16.27;3.58;;;6.20;99.90;;;;;;6214889;23;20065;-85
2022/11/24 06:35:40;;;;;;;16.77;3.42;;;5.90;99.90;;;;;;6215572;23;20364;-85
2022/11/24 06:38:06;;;;;;;19.10;3.78;;;5.90;99.90;;;;;;6242914;23;20017;-85
2022/11/24 06:40:31;;;;;;;20.83;3.75;;;5.90;99.90;;;;;;6243270;23;20051;-85
2022/11/24 06:42:57;;;;;;;17.05;3.10;;;5.90;99.90;;;;;;6215666;23;20012;-85
2022/11/24 06:45:23;;;;;;;16.25;2.97;;;5.90;99.90;;;;;;6216288;23;20020;-84
2022/11/24 06:47:52;;;;;;;21.65;3.72;;;5.90;99.90;;;;;;6215692;23;20047;-85
2022/11/24 06:50:17;;;;;;;15.07;3.15;;;5.90;99.90;;;;;;6242914;23;20008;-85
2022/11/24 06:52:43;;;;;;;17.90;3.30;;;5.90;99.90;;;;;;6214671;23;20105;-84
2022/11/24 06:55:09;;;;;;;10.85;2.85;;;5.90;99.90;;;;;;6243469;23;20328;-85
2022/11/24 06:57:35;;;;;;;15.98;3.10;;;5.80;99.90;;;;;;6189448;23;20059;-86
2022/11/24 07:00:02;;;;;;;16.75;3.35;;;5.90;99.90;;;;;;6216237;23;20048;-85
2022/11/24 07:02:28;;;;;;;20.10;4.22;;;5.90;99.90;;;;;;6216087;23;20066;-86
2022/11/24 07:04:53;;;;;;;18.75;3.72;;;5.90;99.90;;;;;;6187979;23;20012;-85
2022/11/24 07:07:19;;;;;;;28.60;3.95;;;5.90;99.90;;;;;;6188537;23;20016;-85
2022/11/24 07:09:44;;;;;;;14.35;3.30;;;5.90;99.90;;;;;;6212149;23;20126;-83
2022/11/24 07:12:10;;;;;;;18.23;3.53;;;5.90;99.90;;;;;;6214056;23;20008;-83
2022/11/24 07:14:35;;;;;;;16.08;3.55;;;5.90;99.90;;;;;;6214363;23;20016;-83
2022/11/24 07:17:03;;;;;;;19.77;4.28;;;5.80;99.90;;;;;;6214062;23;20062;-83
2022/11/24 07:19:29;;;;;;;22.33;3.65;;;5.90;99.90;;;;;;6214545;23;20027;-82
2022/11/24 07:21:55;;;;;;;18.98;4.05;;;5.90;99.90;;;;;;6239825;23;20115;-84
2022/11/24 07:24:21;;;;;;;17.15;3.10;;;5.90;99.90;;;;;;6187317;23;20015;-84
2022/11/24 07:26:46;;;;;;;17.00;3.40;;;5.90;99.90;;;;;;6212354;23;20020;-83
2022/11/24 07:29:12;;;;;;;25.27;3.90;;;6.00;99.90;;;;;;6240096;23;20328;-84
2022/11/24 07:31:38;;;;;;;22.67;3.75;;;6.00;99.90;;;;;;6189425;23;20016;-84
2022/11/24 07:34:04;;;;;;;22.23;3.42;;;6.00;99.90;;;;;;6240718;23;20012;-85
2022/11/24 07:36:29;;;;;;;14.93;3.58;;;5.90;99.90;;;;;;6214167;23;20016;-85
2022/11/24 07:38:55;;;;;;;26.10;4.28;;;5.90;99.90;;;;;;6213009;23;20042;-84
2022/11/24 07:41:21;;;;;;;22.02;3.28;;;5.90;99.90;;;;;;6241727;23;20044;-84
2022/11/24 07:43:47;;;;;;;19.27;3.50;;;5.90;99.90;;;;;;6213992;23;20054;-84
2022/11/24 07:46:14;;;;;;;19.58;3.60;;;5.90;99.90;;;;;;6188283;23;20022;-83
2022/11/24 07:48:40;;;;;;;17.15;3.38;;;5.90;99.90;;;;;;6240085;23;20115;-82
2022/11/24 07:51:06;;;;;;;20.38;3.92;;;5.90;99.90;;;;;;6212678;23;20056;-82
2022/11/24 07:53:33;;;;;;;18.67;4.10;;;5.90;99.90;;;;;;6213576;23;20126;-83
2022/11/24 07:56:00;;;;;;;15.20;4.47;;;5.90;99.90;;;;;;6211489;23;20023;-84
2022/11/24 07:58:31;;;;;;;18.58;3.33;;;5.90;99.90;;;;;;6239534;23;20016;-85
2022/11/24 08:00:57;;;;;;;19.77;4.13;;;5.90;99.90;;;;;;6236198;23;20321;-84
2022/11/24 08:03:24;;;;;;;24.02;5.47;;;5.90;99.90;;;;;;6240512;23;20062;-85
2022/11/24 08:05:57;;;;;;;20.08;4.20;;;5.90;99.90;;;;;;6240443;23;20012;-84
2022/11/24 08:08:23;;;;;;;19.42;3.67;;;5.90;99.90;;;;;;6240455;23;20004;-84
2022/11/24 08:10:49;;;;;;;26.10;4.20;;;5.90;99.90;;;;;;6187544;23;20027;-84
2022/11/24 08:13:15;;;;;;;18.30;4.30;;;5.90;99.90;;;;;;6214006;23;20019;-84
2022/11/24 08:15:40;;;;;;;20.08;3.90;;;6.00;99.90;;;;;;6213306;23;20012;-84
2022/11/24 08:18:06;;;;;;;22.30;4.90;;;6.00;99.90;;;;;;6213909;23;20337;-84
2022/11/24 08:20:32;;;;;;;18.77;4.80;;;6.00;99.90;;;;;;6240456;23;20016;-84
2022/11/24 08:22:58;;;;;;;27.98;4.47;;;6.00;99.90;;;;;;6188217;23;20023;-85
2022/11/24 08:25:31;;;;;;;21.83;4.32;;;6.10;99.90;;;;;;6212765;23;20016;-84
2022/11/24 08:28:02;;;;;;;17.45;4.40;;;6.20;99.90;;;;;;6240682;23;20062;-84
2022/11/24 08:30:27;;;;;;;26.40;4.70;;;6.20;99.90;;;;;;6213838;23;20008;-84
2022/11/24 08:32:53;;;;;;;19.80;4.55;;;6.20;99.90;;;;;;6213112;23;20038;-85
2022/11/24 08:35:19;;;;;;;16.17;4.93;;;6.30;99.90;;;;;;6240551;23;20317;-84
2022/11/24 08:37:45;;;;;;;25.65;5.63;;;6.30;99.90;;;;;;6212807;23;20094;-84
2022/11/24 08:40:11;;;;;;;19.60;4.90;;;6.30;99.90;;;;;;6188232;23;20384;-84
2022/11/24 08:42:37;;;;;;;16.30;4.32;;;6.30;99.90;;;;;;6239973;23;20498;-84
2022/11/24 08:45:04;;;;;;;16.17;5.38;;;6.40;99.90;;;;;;6188029;23;20016;-84
2022/11/24 08:47:29;;;;;;;17.15;4.68;;;6.40;99.90;;;;;;6239650;23;20012;-84
2022/11/24 08:49:55;;;;;;;23.05;5.43;;;6.50;99.90;;;;;;6188287;23;20314;-84
2022/11/24 08:52:20;;;;;;;18.65;4.85;;;6.50;99.90;;;;;;6212452;23;20023;-85
2022/11/24 08:54:46;;;;;;;18.48;4.82;;;6.50;99.90;;;;;;6213410;23;20008;-84
2022/11/24 08:57:13;;;;;;;29.10;5.35;;;6.60;99.90;;;;;;6239744;23;20095;-84
2022/11/24 08:59:39;;;;;;;23.17;5.07;;;6.60;99.90;;;;;;6240604;23;20046;-84
2022/11/24 09:02:05;;;;;;;20.40;5.30;;;6.70;99.90;;;;;;6240456;23;20027;-84
2022/11/24 09:04:30;;;;;;;20.40;4.93;;;6.70;99.90;;;;;;6213303;23;20356;-84
2022/11/24 09:06:57;;;;;;;24.25;5.25;;;6.80;99.90;;;;;;6212212;23;20024;-84
2022/11/24 09:09:22;;;;;;;15.60;4.70;;;6.80;99.90;;;;;;6213433;23;20453;-83
2022/11/24 09:11:48;;;;;;;18.05;4.80;;;6.80;99.90;;;;;;6214505;23;20019;-84
2022/11/24 09:14:14;;;;;;;22.40;5.22;;;6.90;99.90;;;;;;6214871;23;20004;-84
2022/11/24 09:16:40;;;;;;;15.73;4.78;;;6.90;99.90;;;;;;6242310;23;20513;-84
2022/11/24 09:19:06;;;;;;;16.73;4.40;;;6.90;99.90;;;;;;6242110;23;20143;-84
2022/11/24 09:21:36;;;;;;;15.38;4.63;;;7.00;99.90;;;;;;6214414;23;20008;-84
2022/11/24 09:24:03;;;;;;;14.77;4.22;;;7.10;99.90;;;;;;6241929;23;20387;-84
2022/11/24 09:26:31;;;;;;;11.50;4.05;;;7.10;99.90;;;;;;6214648;23;20117;-84
2022/11/24 09:28:58;;;;;;;9.43;3.15;;;7.20;99.90;;;;;;6242318;23;20058;-84
2022/11/24 09:31:26;;;;;;;10.30;3.33;;;7.30;99.90;;;;;;6242220;23;20039;-84
2022/11/24 09:33:52;;;;;;;12.00;3.45;;;7.40;99.90;;;;;;6214405;23;20008;-84
2022/11/24 09:36:19;;;;;;;11.63;5.57;;;7.40;99.90;;;;;;6214461;23;20034;-83
2022/11/24 09:38:44;;;;;;;10.38;3.05;;;7.50;99.90;;;;;;6214824;23;20352;-83
2022/11/24 09:41:16;;;;;;;12.43;3.22;;;7.50;99.90;;;;;;6241725;23;20023;-83
2022/11/24 09:44:06;;;;;;;10.35;3.00;;;7.60;99.90;;;;;;6241549;23;20676;-81
2022/11/24 09:46:59;;;;;;;11.68;2.80;;;7.70;99.90;;;;;;6241678;23;20062;-80
2022/11/24 09:49:57;;;;;;;13.68;3.60;;;7.70;99.90;;;;;;6179547;23;20058;-80
2022/11/24 09:52:38;;;;;;;11.88;3.45;;;7.80;99.90;;;;;;6240623;23;20651;-80
2022/11/24 09:55:26;;;;;;;9.27;2.97;;;7.80;99.90;;;;;;6241613;23;20083;-81
2022/11/24 09:58:01;;;;;;;10.48;3.05;;;7.90;99.90;;;;;;6212953;23;20436;-81
2022/11/24 10:00:28;;;;;;;11.50;3.05;;;7.90;99.90;;;;;;6213409;23;20044;-82
2022/11/24 10:02:54;;;;;;;9.25;3.05;;;7.90;99.90;;;;;;6212756;23;20400;-81
2022/11/24 10:05:25;;;;;;;9.52;2.60;;;8.00;99.90;;;;;;6239673;23;20047;-81
2022/11/24 10:08:14;;;;;;;10.65;2.40;;;8.00;99.90;;;;;;6213071;23;20016;-81
2022/11/24 10:10:53;;;;;;;7.88;2.38;;;8.10;99.90;;;;;;6240329;23;20630;-81
2022/11/24 10:13:28;;;;;;;10.18;2.70;;;8.20;99.90;;;;;;6212589;23;20374;-80
2022/11/24 10:16:20;;;;;;;8.95;2.67;;;8.20;99.90;;;;;;6240230;23;20009;-82
2022/11/24 10:18:54;;;;;;;10.13;2.60;;;8.30;99.90;;;;;;6239926;23;20038;-82
2022/11/24 10:21:32;;;;;;;6.80;2.50;;;8.30;99.90;;;;;;6240046;23;20019;-81
2022/11/24 10:24:16;;;;;;;8.40;2.38;;;8.40;99.90;;;;;;6212142;23;20020;-81
2022/11/24 10:26:51;;;;;;;9.48;2.55;;;8.50;99.90;;;;;;6213001;23;20020;-82
2022/11/24 10:29:25;;;;;;;7.15;2.10;;;8.50;99.90;;;;;;6212773;23;20464;-86
2022/11/24 10:31:55;;;;;;;9.43;2.40;;;8.60;99.90;;;;;;6213140;23;20015;-82
2022/11/24 10:34:37;;;;;;;10.07;2.80;;;8.70;99.90;;;;;;6212209;23;20012;-82
2022/11/24 10:37:09;;;;;;;8.10;2.67;;;8.70;99.90;;;;;;6188000;23;20074;-81
2022/11/24 10:40:08;;;;;;;14.50;2.80;;;8.80;99.90;;;;;;6240199;23;20020;-82
2022/11/24 10:42:39;;;;;;;5.38;1.73;;;8.90;99.90;;;;;;6240107;23;20031;-83
2022/11/24 10:45:16;;;;;;;7.43;1.75;;;9.00;99.90;;;;;;6240006;23;20329;-83
2022/11/24 10:47:43;;;;;;;5.95;2.08;;;9.00;99.90;;;;;;6239144;23;20012;-83
2022/11/24 10:50:21;;;;;;;10.93;1.95;;;8.90;99.90;;;;;;6238157;23;20016;-83
2022/11/24 10:53:15;;;;;;;7.72;2.15;;;8.90;99.90;;;;;;6211862;23;20027;-83
2022/11/24 10:55:53;;;;;;;;;;;8.80;99.90;;;;;;6192858;23;1078226;-83
2022/11/24 10:58:21;;;;;;;7.35;2.00;;;8.70;99.90;;;;;;6213015;23;19935;-86
2022/11/24 11:00:46;;;;;;;6.20;1.63;;;8.70;99.90;;;;;;6240690;23;20012;-83
2022/11/24 11:03:19;;;;;;;5.55;2.38;;;8.60;99.90;;;;;;6212457;23;20104;-84
2022/11/24 11:05:55;;;;;;;10.93;3.30;;;8.60;99.90;;;;;;6213154;23;20433;-86
2022/11/24 11:08:31;;;;;;;6.25;2.28;;;8.60;99.90;;;;;;6240470;23;20087;-83
2022/11/24 11:11:27;;;;;;;11.00;2.63;;;8.60;99.90;;;;;;6212809;23;20024;-83
2022/11/24 11:13:55;;;;;;;7.50;2.00;;;8.60;99.90;;;;;;6240171;23;20332;-83
2022/11/24 11:16:33;;;;;;;7.85;2.33;;;8.60;99.90;;;;;;6240328;23;20015;-84
2022/11/24 11:19:02;;;;;;;9.15;2.40;;;8.70;99.90;;;;;;6211999;23;20055;-83
2022/11/24 11:21:32;;;;;;;10.65;2.75;;;8.90;99.90;;;;;;6213026;23;20268;-82
2022/11/24 11:23:59;;;;;;;8.02;1.98;;;9.00;99.90;;;;;;6212466;23;20665;-81
2022/11/24 11:26:26;;;;;;;10.73;2.75;;;9.10;99.90;;;;;;6240422;23;20019;-82
2022/11/24 11:29:06;;;;;;;8.60;2.67;;;9.40;99.90;;;;;;6240109;23;20015;-82
2022/11/24 11:31:34;;;;;;;7.65;2.70;;;9.40;99.90;;;;;;6239849;23;20008;-81
2022/11/24 11:34:09;;;;;;;7.18;2.60;;;9.50;99.90;;;;;;6212081;23;20437;-81
2022/11/24 11:36:38;;;;;;;10.85;2.80;;;9.70;99.90;;;;;;6213849;23;20074;-82
2022/11/24 11:39:04;;;;;;;10.93;2.83;;;9.80;99.90;;;;;;6240697;23;20019;-82
2022/11/24 11:41:38;;;;;;;9.27;2.40;;;9.90;99.90;;;;;;6214959;23;20332;-82
2022/11/24 11:44:23;;;;;;;7.60;2.58;;;10.00;99.90;;;;;;6240559;23;20015;-82
2022/11/24 11:46:48;;;;;;;12.27;3.17;;;10.10;99.90;;;;;;6212957;23;20023;-83
2022/11/24 11:49:14;;;;;;;8.90;2.38;;;10.20;99.90;;;;;;6240105;23;20012;-83
2022/11/24 11:51:58;;;;;;;9.70;2.53;;;10.20;99.90;;;;;;6212927;23;20026;-82
2022/11/24 11:54:30;;;;;;;7.75;2.28;;;10.40;99.90;;;;;;6242349;23;20016;-83
2022/11/24 11:57:34;;;;;;;7.40;2.00;;;10.40;99.90;;;;;;6241695;23;20058;-83
2022/11/24 12:00:18;;;;;;;9.82;2.53;;;10.50;99.90;;;;;;6119445;23;20018;-83
2022/11/24 12:02:54;;;;;;;7.75;2.10;;;10.60;99.90;;;;;;6118340;23;20017;-82
2022/11/24 12:05:39;;;;;;;8.38;2.30;;;10.70;99.90;;;;;;6119248;23;20017;-83
2022/11/24 12:08:24;;;;;;;10.38;3.30;;;10.70;99.90;;;;;;6119063;23;20085;-83
2022/11/24 12:11:13;;;;;;;9.75;2.65;;;10.80;99.90;;;;;;6118499;23;20089;-83
2022/11/24 12:13:57;;;;;;;11.73;2.40;;;10.80;99.90;;;;;;6119096;23;20018;-83
2022/11/24 12:16:44;;;;;;;8.63;2.55;;;10.90;99.90;;;;;;6118854;23;20069;-85
2022/11/24 12:19:37;;;;;;;11.38;2.45;;;10.90;99.90;;;;;;6093976;23;20493;-83
2022/11/24 12:22:08;;;;;;;42.05;8.80;;;11.00;99.90;;;;;;6118242;23;20116;-84
2022/11/24 12:25:14;;;;;;;12.85;3.42;;;11.00;99.90;;;;;;6119136;23;20025;-83
2022/11/24 12:27:48;;;;;;;9.68;2.45;;;10.90;99.90;;;;;;6118989;23;20018;-83
2022/11/24 12:30:19;;;;;;;14.77;3.45;;;10.90;99.90;;;;;;6118221;23;20022;-84
2022/11/24 12:33:13;;;;;;;12.13;2.42;;;10.90;99.90;;;;;;6094136;23;20089;-85
2022/11/24 12:35:45;;;;;;;11.88;2.45;;;10.90;99.90;;;;;;6180896;23;20020;-85
2022/11/24 12:38:39;;;;;;;10.18;2.38;;;10.90;99.90;;;;;;6190370;23;20119;-84
2022/11/24 12:41:20;;;;;;;9.18;2.25;;;10.80;99.90;;;;;;6242052;23;20047;-84
2022/11/24 12:43:51;;;;;;;10.82;2.20;;;10.80;99.90;;;;;;6215064;23;20321;-85
2022/11/24 12:46:41;;;;;;;13.80;2.35;;;10.80;99.90;;;;;;6241895;23;20012;-84
2022/11/24 12:49:32;;;;;;;10.55;2.35;;;10.70;99.90;;;;;;6215842;23;20083;-84
2022/11/24 12:52:22;;;;;;;11.70;3.03;;;10.70;99.90;;;;;;6242845;23;20012;-84
2022/11/24 12:54:48;;;;;;;9.75;2.72;;;10.70;99.90;;;;;;6243554;23;20411;-84
2022/11/24 12:57:39;;;;;;;14.13;2.45;;;10.60;99.90;;;;;;6243676;23;20373;-84
2022/11/24 13:00:15;;;;;;;14.20;2.58;;;10.60;99.90;;;;;;6215040;23;20031;-83
2022/11/24 13:03:22;;;;;;;14.32;2.63;;;10.60;99.90;;;;;;6216254;23;20118;-84